sensor_id;sensor_type;location;lat;lon;timestamp;P1;durP1;ratioP1;P2;durP2;ratioP2
42666;SDS011;28280;49.646;14.130;2023-10-08T00:00:15;5.80;;;2.83;;
42666;SDS011;28280;49.646;14.130;2023-10-08T00:11:26;6.47;;;2.70;;
42666;SDS011;28280;49.646;14.130;2023-10-08T00:21:50;6.35;;;2.85;;
42666;SDS011;28280;49.646;14.130;2023-10-08T00:32:13;4.95;;;2.70;;
42666;SDS011;28280;49.646;14.130;2023-10-08T00:42:36;7.22;;;2.70;;
42666;SDS011;28280;49.646;14.130;2023-10-08T00:52:57;4.78;;;2.17;;
42666;SDS011;28280;49.646;14.130;2023-10-08T01:03:22;5.65;;;3.20;;
42666;SDS011;28280;49.646;14.130;2023-10-08T01:13:44;4.55;;;2.15;;
42666;SDS011;28280;49.646;14.130;2023-10-08T01:24:06;4.50;;;2.67;;
42666;SDS011;28280;49.646;14.130;2023-10-08T01:34:28;5.78;;;2.67;;
42666;SDS011;28280;49.646;14.130;2023-10-08T01:44:57;4.40;;;2.65;;
42666;SDS011;28280;49.646;14.130;2023-10-08T01:55:19;5.75;;;2.92;;
42666;SDS011;28280;49.646;14.130;2023-10-08T02:05:41;5.55;;;2.63;;
42666;SDS011;28280;49.646;14.130;2023-10-08T02:16:03;5.07;;;2.60;;
42666;SDS011;28280;49.646;14.130;2023-10-08T02:26:25;4.95;;;2.55;;
42666;SDS011;28280;49.646;14.130;2023-10-08T02:36:46;5.63;;;2.78;;
42666;SDS011;28280;49.646;14.130;2023-10-08T02:47:13;4.90;;;2.65;;
42666;SDS011;28280;49.646;14.130;2023-10-08T02:57:38;6.43;;;2.63;;
42666;SDS011;28280;49.646;14.130;2023-10-08T03:08:00;6.18;;;2.67;;
42666;SDS011;28280;49.646;14.130;2023-10-08T03:18:21;4.72;;;2.92;;
42666;SDS011;28280;49.646;14.130;2023-10-08T03:28:43;6.15;;;2.60;;
42666;SDS011;28280;49.646;14.130;2023-10-08T03:39:04;6.50;;;2.55;;
42666;SDS011;28280;49.646;14.130;2023-10-08T03:49:34;7.95;;;3.00;;
42666;SDS011;28280;49.646;14.130;2023-10-08T03:59:58;5.63;;;3.10;;
42666;SDS011;28280;49.646;14.130;2023-10-08T04:10:20;5.43;;;2.63;;
42666;SDS011;28280;49.646;14.130;2023-10-08T04:21:00;5.95;;;2.95;;
42666;SDS011;28280;49.646;14.130;2023-10-08T04:31:26;4.95;;;2.97;;
42666;SDS011;28280;49.646;14.130;2023-10-08T04:42:00;5.82;;;2.70;;
42666;SDS011;28280;49.646;14.130;2023-10-08T04:52:31;5.45;;;2.97;;
42666;SDS011;28280;49.646;14.130;2023-10-08T05:02:55;10.13;;;2.95;;
42666;SDS011;28280;49.646;14.130;2023-10-08T05:13:24;7.85;;;2.78;;
42666;SDS011;28280;49.646;14.130;2023-10-08T05:23:53;6.93;;;2.70;;
42666;SDS011;28280;49.646;14.130;2023-10-08T05:34:28;5.60;;;2.90;;
42666;SDS011;28280;49.646;14.130;2023-10-08T05:45:03;6.32;;;2.60;;
42666;SDS011;28280;49.646;14.130;2023-10-08T05:55:31;9.57;;;3.03;;
42666;SDS011;28280;49.646;14.130;2023-10-08T06:06:05;7.00;;;3.28;;
42666;SDS011;28280;49.646;14.130;2023-10-08T06:16:36;7.05;;;2.80;;
42666;SDS011;28280;49.646;14.130;2023-10-08T06:27:04;8.65;;;3.00;;
42666;SDS011;28280;49.646;14.130;2023-10-08T06:37:27;6.78;;;2.90;;
42666;SDS011;28280;49.646;14.130;2023-10-08T06:47:48;5.88;;;3.53;;
42666;SDS011;28280;49.646;14.130;2023-10-08T06:58:09;5.35;;;2.83;;
42666;SDS011;28280;49.646;14.130;2023-10-08T07:08:32;8.73;;;2.88;;
42666;SDS011;28280;49.646;14.130;2023-10-08T07:18:54;4.80;;;2.30;;
42666;SDS011;28280;49.646;14.130;2023-10-08T07:29:36;2.97;;;1.70;;
42666;SDS011;28280;49.646;14.130;2023-10-08T07:39:57;3.65;;;1.95;;
42666;SDS011;28280;49.646;14.130;2023-10-08T07:50:20;4.15;;;2.25;;
42666;SDS011;28280;49.646;14.130;2023-10-08T08:00:42;2.60;;;1.55;;
42666;SDS011;28280;49.646;14.130;2023-10-08T08:11:12;3.38;;;1.50;;
42666;SDS011;28280;49.646;14.130;2023-10-08T08:21:33;3.17;;;1.38;;
42666;SDS011;28280;49.646;14.130;2023-10-08T08:31:54;3.03;;;1.27;;
42666;SDS011;28280;49.646;14.130;2023-10-08T08:42:18;2.60;;;1.10;;
42666;SDS011;28280;49.646;14.130;2023-10-08T08:52:43;3.20;;;1.40;;
42666;SDS011;28280;49.646;14.130;2023-10-08T09:03:06;2.70;;;1.08;;
42666;SDS011;28280;49.646;14.130;2023-10-08T09:13:30;1.42;;;0.98;;
42666;SDS011;28280;49.646;14.130;2023-10-08T09:23:52;1.65;;;1.08;;
42666;SDS011;28280;49.646;14.130;2023-10-08T09:34:16;1.27;;;0.90;;
42666;SDS011;28280;49.646;14.130;2023-10-08T09:44:38;1.05;;;0.88;;
42666;SDS011;28280;49.646;14.130;2023-10-08T09:55:00;1.38;;;1.02;;
42666;SDS011;28280;49.646;14.130;2023-10-08T10:05:27;0.93;;;0.80;;
42666;SDS011;28280;49.646;14.130;2023-10-08T10:15:58;1.52;;;0.80;;
42666;SDS011;28280;49.646;14.130;2023-10-08T10:26:23;1.15;;;0.90;;
42666;SDS011;28280;49.646;14.130;2023-10-08T10:36:50;1.77;;;1.02;;
42666;SDS011;28280;49.646;14.130;2023-10-08T10:47:17;2.58;;;1.10;;
42666;SDS011;28280;49.646;14.130;2023-10-08T10:57:39;1.88;;;0.90;;
42666;SDS011;28280;49.646;14.130;2023-10-08T11:08:03;2.50;;;1.20;;
42666;SDS011;28280;49.646;14.130;2023-10-08T11:18:28;2.53;;;0.93;;
42666;SDS011;28280;49.646;14.130;2023-10-08T11:28:50;3.38;;;1.20;;
42666;SDS011;28280;49.646;14.130;2023-10-08T11:39:11;2.33;;;1.35;;
42666;SDS011;28280;49.646;14.130;2023-10-08T11:49:42;2.22;;;0.93;;
42666;SDS011;28280;49.646;14.130;2023-10-08T12:00:15;2.20;;;1.40;;
42666;SDS011;28280;49.646;14.130;2023-10-08T12:10:45;2.70;;;1.52;;
42666;SDS011;28280;49.646;14.130;2023-10-08T12:21:07;3.85;;;1.30;;
42666;SDS011;28280;49.646;14.130;2023-10-08T12:31:32;3.13;;;1.30;;
42666;SDS011;28280;49.646;14.130;2023-10-08T12:41:54;4.28;;;1.48;;
42666;SDS011;28280;49.646;14.130;2023-10-08T12:52:20;4.28;;;1.08;;
42666;SDS011;28280;49.646;14.130;2023-10-08T13:02:41;2.70;;;1.45;;
42666;SDS011;28280;49.646;14.130;2023-10-08T13:13:03;3.97;;;1.40;;
42666;SDS011;28280;49.646;14.130;2023-10-08T13:23:25;4.03;;;1.65;;
42666;SDS011;28280;49.646;14.130;2023-10-08T13:33:46;2.92;;;1.50;;
42666;SDS011;28280;49.646;14.130;2023-10-08T13:44:10;2.40;;;1.15;;
42666;SDS011;28280;49.646;14.130;2023-10-08T13:54:33;2.55;;;1.38;;
42666;SDS011;28280;49.646;14.130;2023-10-08T14:05:00;3.17;;;1.50;;
42666;SDS011;28280;49.646;14.130;2023-10-08T14:15:24;2.70;;;1.20;;
42666;SDS011;28280;49.646;14.130;2023-10-08T14:25:50;3.15;;;1.45;;
42666;SDS011;28280;49.646;14.130;2023-10-08T14:36:12;3.20;;;1.60;;
42666;SDS011;28280;49.646;14.130;2023-10-08T14:46:52;3.10;;;1.42;;
42666;SDS011;28280;49.646;14.130;2023-10-08T14:57:15;1.98;;;1.27;;
42666;SDS011;28280;49.646;14.130;2023-10-08T15:07:39;3.53;;;1.80;;
42666;SDS011;28280;49.646;14.130;2023-10-08T15:18:01;3.95;;;1.55;;
42666;SDS011;28280;49.646;14.130;2023-10-08T15:28:33;3.75;;;1.45;;
42666;SDS011;28280;49.646;14.130;2023-10-08T15:38:54;3.00;;;1.55;;
42666;SDS011;28280;49.646;14.130;2023-10-08T15:49:17;2.58;;;1.50;;
42666;SDS011;28280;49.646;14.130;2023-10-08T15:59:41;3.58;;;1.80;;
42666;SDS011;28280;49.646;14.130;2023-10-08T16:10:03;5.47;;;1.92;;
42666;SDS011;28280;49.646;14.130;2023-10-08T16:20:26;3.40;;;1.85;;
42666;SDS011;28280;49.646;14.130;2023-10-08T16:30:48;4.00;;;1.77;;
42666;SDS011;28280;49.646;14.130;2023-10-08T16:41:15;3.63;;;1.65;;
42666;SDS011;28280;49.646;14.130;2023-10-08T16:51:37;2.15;;;1.45;;
42666;SDS011;28280;49.646;14.130;2023-10-08T17:01:59;3.00;;;1.58;;
42666;SDS011;28280;49.646;14.130;2023-10-08T17:12:21;3.30;;;1.65;;
42666;SDS011;28280;49.646;14.130;2023-10-08T17:22:46;4.50;;;2.00;;
42666;SDS011;28280;49.646;14.130;2023-10-08T17:33:08;4.27;;;1.70;;
42666;SDS011;28280;49.646;14.130;2023-10-08T17:43:31;2.95;;;1.55;;
42666;SDS011;28280;49.646;14.130;2023-10-08T17:53:54;3.60;;;1.77;;
42666;SDS011;28280;49.646;14.130;2023-10-08T18:04:16;3.38;;;1.88;;
42666;SDS011;28280;49.646;14.130;2023-10-08T18:14:38;3.53;;;1.65;;
42666;SDS011;28280;49.646;14.130;2023-10-08T18:25:00;4.57;;;1.70;;
42666;SDS011;28280;49.646;14.130;2023-10-08T18:35:24;4.13;;;1.88;;
42666;SDS011;28280;49.646;14.130;2023-10-08T18:45:45;5.25;;;1.80;;
42666;SDS011;28280;49.646;14.130;2023-10-08T18:56:08;3.67;;;2.00;;
42666;SDS011;28280;49.646;14.130;2023-10-08T19:06:35;3.60;;;2.15;;
42666;SDS011;28280;49.646;14.130;2023-10-08T19:16:57;4.03;;;2.30;;
42666;SDS011;28280;49.646;14.130;2023-10-08T19:27:19;3.00;;;2.03;;
42666;SDS011;28280;49.646;14.130;2023-10-08T19:37:45;4.20;;;2.40;;
42666;SDS011;28280;49.646;14.130;2023-10-08T19:48:08;6.22;;;2.35;;
42666;SDS011;28280;49.646;14.130;2023-10-08T19:58:32;4.93;;;2.13;;
42666;SDS011;28280;49.646;14.130;2023-10-08T20:08:58;8.52;;;2.38;;
42666;SDS011;28280;49.646;14.130;2023-10-08T20:19:20;4.97;;;2.40;;
42666;SDS011;28280;49.646;14.130;2023-10-08T20:29:43;3.92;;;2.17;;
42666;SDS011;28280;49.646;14.130;2023-10-08T20:40:07;4.85;;;2.25;;
42666;SDS011;28280;49.646;14.130;2023-10-08T20:50:30;3.95;;;1.95;;
42666;SDS011;28280;49.646;14.130;2023-10-08T21:00:55;3.53;;;2.22;;
42666;SDS011;28280;49.646;14.130;2023-10-08T21:11:18;3.45;;;2.25;;
42666;SDS011;28280;49.646;14.130;2023-10-08T21:21:41;2.80;;;1.90;;
42666;SDS011;28280;49.646;14.130;2023-10-08T21:32:02;3.20;;;1.83;;
42666;SDS011;28280;49.646;14.130;2023-10-08T21:42:24;2.95;;;2.03;;
42666;SDS011;28280;49.646;14.130;2023-10-08T21:52:46;3.88;;;1.80;;
42666;SDS011;28280;49.646;14.130;2023-10-08T22:03:08;2.75;;;1.80;;
42666;SDS011;28280;49.646;14.130;2023-10-08T22:13:30;3.17;;;1.95;;
42666;SDS011;28280;49.646;14.130;2023-10-08T22:23:52;3.45;;;2.28;;
42666;SDS011;28280;49.646;14.130;2023-10-08T22:34:14;3.22;;;2.10;;
42666;SDS011;28280;49.646;14.130;2023-10-08T22:44:38;3.75;;;1.90;;
42666;SDS011;28280;49.646;14.130;2023-10-08T22:54:59;4.80;;;2.10;;
42666;SDS011;28280;49.646;14.130;2023-10-08T23:05:22;3.58;;;2.20;;
42666;SDS011;28280;49.646;14.130;2023-10-08T23:15:43;3.15;;;2.10;;
42666;SDS011;28280;49.646;14.130;2023-10-08T23:26:07;4.07;;;2.03;;
42666;SDS011;28280;49.646;14.130;2023-10-08T23:36:31;4.03;;;2.00;;
42666;SDS011;28280;49.646;14.130;2023-10-08T23:47:00;3.13;;;1.67;;
42666;SDS011;28280;49.646;14.130;2023-10-08T23:57:28;3.63;;;1.90;;
